sensor_id;sensor_type;location;lat;lon;timestamp;P1;durP1;ratioP1;P2;durP2;ratioP2
46507;SDS011;32223;53.654;10.014;2024-01-06T00:00:57;5.10;;;3.08;;
46507;SDS011;32223;53.654;10.014;2024-01-06T00:03:22;5.57;;;3.60;;
46507;SDS011;32223;53.654;10.014;2024-01-06T00:05:48;6.30;;;3.45;;
46507;SDS011;32223;53.654;10.014;2024-01-06T00:08:14;6.63;;;3.65;;
46507;SDS011;32223;53.654;10.014;2024-01-06T00:10:39;5.60;;;3.30;;
46507;SDS011;32223;53.654;10.014;2024-01-06T00:13:05;9.95;;;3.40;;
46507;SDS011;32223;53.654;10.014;2024-01-06T00:15:30;10.70;;;3.65;;
46507;SDS011;32223;53.654;10.014;2024-01-06T00:17:56;7.47;;;3.90;;
46507;SDS011;32223;53.654;10.014;2024-01-06T00:20:21;10.45;;;3.90;;
46507;SDS011;32223;53.654;10.014;2024-01-06T00:22:47;9.85;;;3.78;;
46507;SDS011;32223;53.654;10.014;2024-01-06T00:25:13;8.35;;;3.63;;
46507;SDS011;32223;53.654;10.014;2024-01-06T00:27:38;7.07;;;4.03;;
46507;SDS011;32223;53.654;10.014;2024-01-06T00:30:04;8.55;;;4.15;;
46507;SDS011;32223;53.654;10.014;2024-01-06T00:32:30;8.25;;;4.32;;
46507;SDS011;32223;53.654;10.014;2024-01-06T00:34:56;7.80;;;3.97;;
46507;SDS011;32223;53.654;10.014;2024-01-06T00:37:21;7.97;;;4.53;;
46507;SDS011;32223;53.654;10.014;2024-01-06T00:39:47;10.13;;;4.25;;
46507;SDS011;32223;53.654;10.014;2024-01-06T00:42:12;8.95;;;4.65;;
46507;SDS011;32223;53.654;10.014;2024-01-06T00:44:38;7.53;;;4.30;;
46507;SDS011;32223;53.654;10.014;2024-01-06T00:47:04;7.13;;;3.97;;
46507;SDS011;32223;53.654;10.014;2024-01-06T00:49:29;8.57;;;4.68;;
46507;SDS011;32223;53.654;10.014;2024-01-06T00:51:55;10.30;;;4.50;;
46507;SDS011;32223;53.654;10.014;2024-01-06T00:54:20;7.32;;;4.57;;
46507;SDS011;32223;53.654;10.014;2024-01-06T00:56:46;6.53;;;3.70;;
46507;SDS011;32223;53.654;10.014;2024-01-06T00:59:12;7.35;;;4.00;;
46507;SDS011;32223;53.654;10.014;2024-01-06T01:01:37;7.50;;;3.92;;
46507;SDS011;32223;53.654;10.014;2024-01-06T01:04:03;7.03;;;4.03;;
46507;SDS011;32223;53.654;10.014;2024-01-06T01:06:28;8.40;;;4.53;;
46507;SDS011;32223;53.654;10.014;2024-01-06T01:08:54;9.45;;;5.63;;
46507;SDS011;32223;53.654;10.014;2024-01-06T01:11:20;7.68;;;4.05;;
46507;SDS011;32223;53.654;10.014;2024-01-06T01:13:45;11.20;;;4.72;;
46507;SDS011;32223;53.654;10.014;2024-01-06T01:16:11;9.65;;;4.85;;
46507;SDS011;32223;53.654;10.014;2024-01-06T01:18:37;9.75;;;4.93;;
46507;SDS011;32223;53.654;10.014;2024-01-06T01:21:02;10.32;;;4.30;;
46507;SDS011;32223;53.654;10.014;2024-01-06T01:23:28;9.55;;;4.22;;
46507;SDS011;32223;53.654;10.014;2024-01-06T01:25:54;8.40;;;4.53;;
46507;SDS011;32223;53.654;10.014;2024-01-06T01:28:19;8.82;;;4.32;;
46507;SDS011;32223;53.654;10.014;2024-01-06T01:30:45;5.75;;;3.63;;
46507;SDS011;32223;53.654;10.014;2024-01-06T01:33:11;8.15;;;4.25;;
46507;SDS011;32223;53.654;10.014;2024-01-06T01:35:36;6.95;;;4.55;;
46507;SDS011;32223;53.654;10.014;2024-01-06T01:38:02;8.05;;;3.78;;
46507;SDS011;32223;53.654;10.014;2024-01-06T01:40:28;8.15;;;4.63;;
46507;SDS011;32223;53.654;10.014;2024-01-06T01:42:53;7.53;;;4.43;;
46507;SDS011;32223;53.654;10.014;2024-01-06T01:45:19;6.40;;;3.85;;
46507;SDS011;32223;53.654;10.014;2024-01-06T01:47:45;7.88;;;4.68;;
46507;SDS011;32223;53.654;10.014;2024-01-06T01:50:11;7.43;;;4.55;;
46507;SDS011;32223;53.654;10.014;2024-01-06T01:52:37;9.43;;;4.85;;
46507;SDS011;32223;53.654;10.014;2024-01-06T01:55:05;7.72;;;4.15;;
46507;SDS011;32223;53.654;10.014;2024-01-06T01:57:31;8.68;;;4.38;;
46507;SDS011;32223;53.654;10.014;2024-01-06T01:59:57;8.60;;;4.85;;
46507;SDS011;32223;53.654;10.014;2024-01-06T02:02:23;10.85;;;5.20;;
46507;SDS011;32223;53.654;10.014;2024-01-06T02:04:49;10.57;;;5.63;;
46507;SDS011;32223;53.654;10.014;2024-01-06T02:07:14;10.30;;;5.72;;
46507;SDS011;32223;53.654;10.014;2024-01-06T02:09:40;8.75;;;4.93;;
46507;SDS011;32223;53.654;10.014;2024-01-06T02:12:06;10.73;;;6.15;;
46507;SDS011;32223;53.654;10.014;2024-01-06T02:14:32;11.52;;;7.07;;
46507;SDS011;32223;53.654;10.014;2024-01-06T02:16:57;11.57;;;5.82;;
46507;SDS011;32223;53.654;10.014;2024-01-06T02:19:23;8.57;;;4.97;;
46507;SDS011;32223;53.654;10.014;2024-01-06T02:21:52;12.23;;;6.05;;
46507;SDS011;32223;53.654;10.014;2024-01-06T02:24:18;12.00;;;5.43;;
46507;SDS011;32223;53.654;10.014;2024-01-06T02:26:44;10.02;;;5.78;;
46507;SDS011;32223;53.654;10.014;2024-01-06T02:29:10;10.45;;;6.15;;
46507;SDS011;32223;53.654;10.014;2024-01-06T02:31:35;12.15;;;6.82;;
46507;SDS011;32223;53.654;10.014;2024-01-06T02:34:01;11.65;;;5.97;;
46507;SDS011;32223;53.654;10.014;2024-01-06T02:36:27;9.80;;;5.65;;
46507;SDS011;32223;53.654;10.014;2024-01-06T02:38:52;9.95;;;5.60;;
46507;SDS011;32223;53.654;10.014;2024-01-06T02:41:18;10.57;;;5.82;;
46507;SDS011;32223;53.654;10.014;2024-01-06T02:43:43;11.40;;;6.40;;
46507;SDS011;32223;53.654;10.014;2024-01-06T02:46:09;11.75;;;6.68;;
46507;SDS011;32223;53.654;10.014;2024-01-06T02:48:35;10.75;;;6.47;;
46507;SDS011;32223;53.654;10.014;2024-01-06T02:51:00;14.02;;;7.47;;
46507;SDS011;32223;53.654;10.014;2024-01-06T02:53:26;11.55;;;6.03;;
46507;SDS011;32223;53.654;10.014;2024-01-06T02:55:51;10.25;;;6.15;;
46507;SDS011;32223;53.654;10.014;2024-01-06T02:58:17;10.38;;;6.10;;
46507;SDS011;32223;53.654;10.014;2024-01-06T03:00:42;14.38;;;6.88;;
46507;SDS011;32223;53.654;10.014;2024-01-06T03:03:08;11.30;;;6.82;;
46507;SDS011;32223;53.654;10.014;2024-01-06T03:05:33;11.13;;;6.40;;
46507;SDS011;32223;53.654;10.014;2024-01-06T03:07:59;13.23;;;7.15;;
46507;SDS011;32223;53.654;10.014;2024-01-06T03:10:25;13.27;;;6.90;;
46507;SDS011;32223;53.654;10.014;2024-01-06T03:12:51;13.15;;;6.57;;
46507;SDS011;32223;53.654;10.014;2024-01-06T03:15:16;10.68;;;6.60;;
46507;SDS011;32223;53.654;10.014;2024-01-06T03:17:42;15.80;;;7.05;;
46507;SDS011;32223;53.654;10.014;2024-01-06T03:20:07;10.90;;;6.22;;
46507;SDS011;32223;53.654;10.014;2024-01-06T03:22:34;12.88;;;6.93;;
46507;SDS011;32223;53.654;10.014;2024-01-06T03:24:59;13.90;;;6.57;;
46507;SDS011;32223;53.654;10.014;2024-01-06T03:27:25;12.90;;;6.18;;
46507;SDS011;32223;53.654;10.014;2024-01-06T03:29:51;13.07;;;6.93;;
46507;SDS011;32223;53.654;10.014;2024-01-06T03:32:16;12.18;;;7.25;;
46507;SDS011;32223;53.654;10.014;2024-01-06T03:34:42;10.40;;;6.95;;
46507;SDS011;32223;53.654;10.014;2024-01-06T03:37:07;14.90;;;7.15;;
46507;SDS011;32223;53.654;10.014;2024-01-06T03:39:33;10.43;;;6.68;;
46507;SDS011;32223;53.654;10.014;2024-01-06T03:41:59;11.20;;;6.15;;
46507;SDS011;32223;53.654;10.014;2024-01-06T03:44:25;10.77;;;6.50;;
46507;SDS011;32223;53.654;10.014;2024-01-06T03:46:55;12.07;;;7.00;;
46507;SDS011;32223;53.654;10.014;2024-01-06T03:49:22;11.13;;;5.47;;
46507;SDS011;32223;53.654;10.014;2024-01-06T03:51:48;10.13;;;5.70;;
46507;SDS011;32223;53.654;10.014;2024-01-06T03:54:14;11.73;;;6.03;;
46507;SDS011;32223;53.654;10.014;2024-01-06T03:56:39;10.90;;;6.32;;
46507;SDS011;32223;53.654;10.014;2024-01-06T03:59:05;9.52;;;5.22;;
46507;SDS011;32223;53.654;10.014;2024-01-06T04:01:31;10.07;;;5.47;;
46507;SDS011;32223;53.654;10.014;2024-01-06T04:04:00;11.35;;;5.70;;
46507;SDS011;32223;53.654;10.014;2024-01-06T04:06:29;11.50;;;6.65;;
46507;SDS011;32223;53.654;10.014;2024-01-06T04:08:56;9.88;;;5.65;;
46507;SDS011;32223;53.654;10.014;2024-01-06T04:11:22;13.93;;;6.93;;
46507;SDS011;32223;53.654;10.014;2024-01-06T04:13:48;8.02;;;4.95;;
46507;SDS011;32223;53.654;10.014;2024-01-06T04:16:13;10.05;;;5.43;;
46507;SDS011;32223;53.654;10.014;2024-01-06T04:18:39;10.85;;;6.30;;
46507;SDS011;32223;53.654;10.014;2024-01-06T04:21:05;10.15;;;5.95;;
46507;SDS011;32223;53.654;10.014;2024-01-06T04:23:30;11.02;;;6.20;;
46507;SDS011;32223;53.654;10.014;2024-01-06T04:25:56;11.07;;;6.35;;
46507;SDS011;32223;53.654;10.014;2024-01-06T04:28:22;10.23;;;6.50;;
46507;SDS011;32223;53.654;10.014;2024-01-06T04:30:48;9.25;;;6.05;;
46507;SDS011;32223;53.654;10.014;2024-01-06T04:33:14;8.68;;;5.60;;
46507;SDS011;32223;53.654;10.014;2024-01-06T04:35:39;11.35;;;6.40;;
46507;SDS011;32223;53.654;10.014;2024-01-06T04:38:05;11.50;;;6.10;;
46507;SDS011;32223;53.654;10.014;2024-01-06T04:40:30;10.20;;;6.03;;
46507;SDS011;32223;53.654;10.014;2024-01-06T04:42:56;11.05;;;6.35;;
46507;SDS011;32223;53.654;10.014;2024-01-06T04:45:22;9.18;;;5.50;;
46507;SDS011;32223;53.654;10.014;2024-01-06T04:47:49;9.45;;;5.60;;
46507;SDS011;32223;53.654;10.014;2024-01-06T04:50:15;10.98;;;5.80;;
46507;SDS011;32223;53.654;10.014;2024-01-06T04:52:40;10.73;;;5.40;;
46507;SDS011;32223;53.654;10.014;2024-01-06T04:55:06;13.10;;;7.13;;
46507;SDS011;32223;53.654;10.014;2024-01-06T04:57:32;13.40;;;6.80;;
46507;SDS011;32223;53.654;10.014;2024-01-06T04:59:57;11.18;;;7.10;;
46507;SDS011;32223;53.654;10.014;2024-01-06T05:02:24;11.38;;;6.40;;
46507;SDS011;32223;53.654;10.014;2024-01-06T05:04:50;11.10;;;6.20;;
46507;SDS011;32223;53.654;10.014;2024-01-06T05:07:16;13.07;;;6.20;;
46507;SDS011;32223;53.654;10.014;2024-01-06T05:09:41;12.70;;;5.93;;
46507;SDS011;32223;53.654;10.014;2024-01-06T05:12:07;10.63;;;6.07;;
46507;SDS011;32223;53.654;10.014;2024-01-06T05:14:33;11.93;;;6.60;;
46507;SDS011;32223;53.654;10.014;2024-01-06T05:16:59;15.18;;;6.22;;
46507;SDS011;32223;53.654;10.014;2024-01-06T05:19:24;14.77;;;6.88;;
46507;SDS011;32223;53.654;10.014;2024-01-06T05:21:50;13.02;;;7.13;;
46507;SDS011;32223;53.654;10.014;2024-01-06T05:24:15;10.40;;;6.15;;
46507;SDS011;32223;53.654;10.014;2024-01-06T05:26:41;11.38;;;6.22;;
46507;SDS011;32223;53.654;10.014;2024-01-06T05:29:07;10.38;;;5.65;;
46507;SDS011;32223;53.654;10.014;2024-01-06T05:31:32;12.18;;;6.50;;
46507;SDS011;32223;53.654;10.014;2024-01-06T05:33:58;11.35;;;6.05;;
46507;SDS011;32223;53.654;10.014;2024-01-06T05:36:24;12.68;;;6.80;;
46507;SDS011;32223;53.654;10.014;2024-01-06T05:38:50;13.75;;;7.70;;
46507;SDS011;32223;53.654;10.014;2024-01-06T05:41:15;13.75;;;6.53;;
46507;SDS011;32223;53.654;10.014;2024-01-06T05:43:41;14.27;;;7.05;;
46507;SDS011;32223;53.654;10.014;2024-01-06T05:46:07;12.63;;;6.75;;
46507;SDS011;32223;53.654;10.014;2024-01-06T05:48:33;10.88;;;6.18;;
46507;SDS011;32223;53.654;10.014;2024-01-06T05:50:58;11.23;;;6.32;;
46507;SDS011;32223;53.654;10.014;2024-01-06T05:53:24;13.93;;;6.65;;
46507;SDS011;32223;53.654;10.014;2024-01-06T05:55:50;14.63;;;6.78;;
46507;SDS011;32223;53.654;10.014;2024-01-06T05:58:15;11.88;;;6.95;;
46507;SDS011;32223;53.654;10.014;2024-01-06T06:00:41;11.90;;;7.05;;
46507;SDS011;32223;53.654;10.014;2024-01-06T06:03:07;10.40;;;6.07;;
46507;SDS011;32223;53.654;10.014;2024-01-06T06:05:32;13.57;;;6.57;;
46507;SDS011;32223;53.654;10.014;2024-01-06T06:07:58;13.35;;;6.35;;
46507;SDS011;32223;53.654;10.014;2024-01-06T06:10:24;12.57;;;6.72;;
46507;SDS011;32223;53.654;10.014;2024-01-06T06:12:55;13.18;;;7.47;;
46507;SDS011;32223;53.654;10.014;2024-01-06T06:15:20;10.35;;;6.20;;
46507;SDS011;32223;53.654;10.014;2024-01-06T06:17:46;14.27;;;7.55;;
46507;SDS011;32223;53.654;10.014;2024-01-06T06:20:12;11.32;;;7.03;;
46507;SDS011;32223;53.654;10.014;2024-01-06T06:22:37;14.57;;;6.55;;
46507;SDS011;32223;53.654;10.014;2024-01-06T06:25:03;11.85;;;6.80;;
46507;SDS011;32223;53.654;10.014;2024-01-06T06:27:29;14.90;;;7.15;;
46507;SDS011;32223;53.654;10.014;2024-01-06T06:29:54;11.70;;;6.03;;
46507;SDS011;32223;53.654;10.014;2024-01-06T06:32:23;13.80;;;6.80;;
46507;SDS011;32223;53.654;10.014;2024-01-06T06:34:50;9.35;;;6.05;;
46507;SDS011;32223;53.654;10.014;2024-01-06T06:37:15;11.25;;;6.70;;
46507;SDS011;32223;53.654;10.014;2024-01-06T06:39:41;11.95;;;7.28;;
46507;SDS011;32223;53.654;10.014;2024-01-06T06:42:09;15.43;;;7.43;;
46507;SDS011;32223;53.654;10.014;2024-01-06T06:44:34;11.50;;;6.72;;
46507;SDS011;32223;53.654;10.014;2024-01-06T06:47:00;13.10;;;7.18;;
46507;SDS011;32223;53.654;10.014;2024-01-06T06:49:26;13.98;;;7.55;;
46507;SDS011;32223;53.654;10.014;2024-01-06T06:51:51;11.23;;;6.43;;
46507;SDS011;32223;53.654;10.014;2024-01-06T06:54:17;14.15;;;6.78;;
46507;SDS011;32223;53.654;10.014;2024-01-06T06:56:43;12.88;;;7.05;;
46507;SDS011;32223;53.654;10.014;2024-01-06T06:59:08;11.50;;;6.78;;
46507;SDS011;32223;53.654;10.014;2024-01-06T07:01:34;12.30;;;7.05;;
46507;SDS011;32223;53.654;10.014;2024-01-06T07:04:00;14.25;;;7.32;;
46507;SDS011;32223;53.654;10.014;2024-01-06T07:06:27;12.52;;;7.55;;
46507;SDS011;32223;53.654;10.014;2024-01-06T07:08:53;14.40;;;7.03;;
46507;SDS011;32223;53.654;10.014;2024-01-06T07:11:19;12.18;;;7.20;;
46507;SDS011;32223;53.654;10.014;2024-01-06T07:13:45;15.35;;;7.20;;
46507;SDS011;32223;53.654;10.014;2024-01-06T07:16:10;14.55;;;7.55;;
46507;SDS011;32223;53.654;10.014;2024-01-06T07:18:36;13.23;;;7.15;;
46507;SDS011;32223;53.654;10.014;2024-01-06T07:21:04;14.45;;;8.20;;
46507;SDS011;32223;53.654;10.014;2024-01-06T07:23:31;12.55;;;7.13;;
46507;SDS011;32223;53.654;10.014;2024-01-06T07:25:57;13.35;;;8.07;;
46507;SDS011;32223;53.654;10.014;2024-01-06T07:28:23;12.10;;;7.38;;
46507;SDS011;32223;53.654;10.014;2024-01-06T07:30:49;14.00;;;7.65;;
46507;SDS011;32223;53.654;10.014;2024-01-06T07:33:15;16.25;;;8.43;;
46507;SDS011;32223;53.654;10.014;2024-01-06T07:35:40;13.80;;;7.50;;
46507;SDS011;32223;53.654;10.014;2024-01-06T07:38:08;14.35;;;7.53;;
46507;SDS011;32223;53.654;10.014;2024-01-06T07:40:37;15.85;;;6.78;;
46507;SDS011;32223;53.654;10.014;2024-01-06T07:43:03;14.10;;;7.13;;
46507;SDS011;32223;53.654;10.014;2024-01-06T07:45:29;11.73;;;6.57;;
46507;SDS011;32223;53.654;10.014;2024-01-06T07:47:56;13.23;;;8.23;;
46507;SDS011;32223;53.654;10.014;2024-01-06T07:50:25;12.52;;;7.25;;
46507;SDS011;32223;53.654;10.014;2024-01-06T07:52:51;13.93;;;7.30;;
46507;SDS011;32223;53.654;10.014;2024-01-06T07:55:17;12.05;;;6.53;;
46507;SDS011;32223;53.654;10.014;2024-01-06T07:57:43;17.08;;;7.68;;
46507;SDS011;32223;53.654;10.014;2024-01-06T08:00:09;13.50;;;6.90;;
46507;SDS011;32223;53.654;10.014;2024-01-06T08:02:35;14.30;;;8.05;;
46507;SDS011;32223;53.654;10.014;2024-01-06T08:05:01;13.50;;;7.82;;
46507;SDS011;32223;53.654;10.014;2024-01-06T08:07:27;13.10;;;7.60;;
46507;SDS011;32223;53.654;10.014;2024-01-06T08:09:53;17.00;;;7.88;;
46507;SDS011;32223;53.654;10.014;2024-01-06T08:12:18;14.57;;;7.47;;
46507;SDS011;32223;53.654;10.014;2024-01-06T08:14:44;13.35;;;7.28;;
46507;SDS011;32223;53.654;10.014;2024-01-06T08:17:10;14.13;;;7.05;;
46507;SDS011;32223;53.654;10.014;2024-01-06T08:19:35;14.23;;;6.68;;
46507;SDS011;32223;53.654;10.014;2024-01-06T08:22:01;13.20;;;7.43;;
46507;SDS011;32223;53.654;10.014;2024-01-06T08:24:26;13.90;;;6.85;;
46507;SDS011;32223;53.654;10.014;2024-01-06T08:26:52;11.60;;;6.45;;
46507;SDS011;32223;53.654;10.014;2024-01-06T08:29:17;11.15;;;6.55;;
46507;SDS011;32223;53.654;10.014;2024-01-06T08:31:44;12.70;;;6.20;;
46507;SDS011;32223;53.654;10.014;2024-01-06T08:34:10;14.15;;;6.65;;
46507;SDS011;32223;53.654;10.014;2024-01-06T08:36:36;13.95;;;7.05;;
46507;SDS011;32223;53.654;10.014;2024-01-06T08:39:02;14.57;;;6.80;;
46507;SDS011;32223;53.654;10.014;2024-01-06T08:41:27;12.77;;;6.85;;
46507;SDS011;32223;53.654;10.014;2024-01-06T08:43:53;14.50;;;6.63;;
46507;SDS011;32223;53.654;10.014;2024-01-06T08:46:19;13.20;;;7.10;;
46507;SDS011;32223;53.654;10.014;2024-01-06T08:48:44;15.25;;;7.30;;
46507;SDS011;32223;53.654;10.014;2024-01-06T08:51:10;11.77;;;6.70;;
46507;SDS011;32223;53.654;10.014;2024-01-06T08:53:36;14.25;;;7.60;;
46507;SDS011;32223;53.654;10.014;2024-01-06T08:56:01;13.88;;;7.75;;
46507;SDS011;32223;53.654;10.014;2024-01-06T08:58:28;12.85;;;6.57;;
46507;SDS011;32223;53.654;10.014;2024-01-06T09:00:54;15.00;;;6.95;;
46507;SDS011;32223;53.654;10.014;2024-01-06T09:03:19;11.50;;;6.22;;
46507;SDS011;32223;53.654;10.014;2024-01-06T09:05:55;13.77;;;6.72;;
46507;SDS011;32223;53.654;10.014;2024-01-06T09:08:22;14.93;;;7.05;;
46507;SDS011;32223;53.654;10.014;2024-01-06T09:10:49;11.80;;;6.40;;
46507;SDS011;32223;53.654;10.014;2024-01-06T09:13:16;14.07;;;6.35;;
46507;SDS011;32223;53.654;10.014;2024-01-06T09:15:43;14.00;;;6.63;;
46507;SDS011;32223;53.654;10.014;2024-01-06T09:18:08;13.43;;;6.95;;
46507;SDS011;32223;53.654;10.014;2024-01-06T09:20:34;16.23;;;8.20;;
46507;SDS011;32223;53.654;10.014;2024-01-06T09:23:00;14.73;;;6.95;;
46507;SDS011;32223;53.654;10.014;2024-01-06T09:25:25;13.45;;;7.40;;
46507;SDS011;32223;53.654;10.014;2024-01-06T09:27:51;12.23;;;6.97;;
46507;SDS011;32223;53.654;10.014;2024-01-06T09:30:18;13.27;;;6.45;;
46507;SDS011;32223;53.654;10.014;2024-01-06T09:32:43;13.35;;;7.93;;
46507;SDS011;32223;53.654;10.014;2024-01-06T09:35:09;11.85;;;6.15;;
46507;SDS011;32223;53.654;10.014;2024-01-06T09:37:35;13.70;;;7.28;;
46507;SDS011;32223;53.654;10.014;2024-01-06T09:40:00;13.50;;;6.75;;
46507;SDS011;32223;53.654;10.014;2024-01-06T09:42:26;12.63;;;7.20;;
46507;SDS011;32223;53.654;10.014;2024-01-06T09:44:52;14.75;;;7.78;;
46507;SDS011;32223;53.654;10.014;2024-01-06T09:47:18;11.73;;;6.25;;
46507;SDS011;32223;53.654;10.014;2024-01-06T09:49:48;14.73;;;7.05;;
46507;SDS011;32223;53.654;10.014;2024-01-06T09:52:15;10.93;;;5.50;;
46507;SDS011;32223;53.654;10.014;2024-01-06T09:54:45;13.07;;;7.10;;
46507;SDS011;32223;53.654;10.014;2024-01-06T09:57:15;13.13;;;6.32;;
46507;SDS011;32223;53.654;10.014;2024-01-06T09:59:42;12.93;;;6.40;;
46507;SDS011;32223;53.654;10.014;2024-01-06T10:02:09;13.10;;;6.22;;
46507;SDS011;32223;53.654;10.014;2024-01-06T10:04:39;13.25;;;7.20;;
46507;SDS011;32223;53.654;10.014;2024-01-06T10:07:04;15.98;;;6.55;;
46507;SDS011;32223;53.654;10.014;2024-01-06T10:09:30;10.65;;;6.03;;
46507;SDS011;32223;53.654;10.014;2024-01-06T10:11:56;12.52;;;7.05;;
46507;SDS011;32223;53.654;10.014;2024-01-06T10:14:23;12.75;;;6.95;;
46507;SDS011;32223;53.654;10.014;2024-01-06T10:16:49;11.48;;;6.13;;
46507;SDS011;32223;53.654;10.014;2024-01-06T10:19:16;12.95;;;7.30;;
46507;SDS011;32223;53.654;10.014;2024-01-06T10:21:41;11.35;;;6.00;;
46507;SDS011;32223;53.654;10.014;2024-01-06T10:24:08;12.05;;;6.60;;
46507;SDS011;32223;53.654;10.014;2024-01-06T10:26:34;12.77;;;6.45;;
46507;SDS011;32223;53.654;10.014;2024-01-06T10:29:00;10.55;;;5.57;;
46507;SDS011;32223;53.654;10.014;2024-01-06T10:31:26;13.85;;;7.05;;
46507;SDS011;32223;53.654;10.014;2024-01-06T10:33:52;10.50;;;5.78;;
46507;SDS011;32223;53.654;10.014;2024-01-06T10:36:17;12.20;;;6.75;;
46507;SDS011;32223;53.654;10.014;2024-01-06T10:38:46;11.23;;;6.13;;
46507;SDS011;32223;53.654;10.014;2024-01-06T10:41:11;12.23;;;5.38;;
46507;SDS011;32223;53.654;10.014;2024-01-06T10:43:38;10.38;;;6.22;;
46507;SDS011;32223;53.654;10.014;2024-01-06T10:46:08;11.48;;;5.85;;
46507;SDS011;32223;53.654;10.014;2024-01-06T10:48:38;10.85;;;4.80;;
46507;SDS011;32223;53.654;10.014;2024-01-06T10:51:07;9.85;;;5.43;;
46507;SDS011;32223;53.654;10.014;2024-01-06T10:53:38;12.23;;;6.28;;
46507;SDS011;32223;53.654;10.014;2024-01-06T10:56:06;9.90;;;5.57;;
46507;SDS011;32223;53.654;10.014;2024-01-06T10:58:56;10.88;;;5.85;;
46507;SDS011;32223;53.654;10.014;2024-01-06T11:01:23;10.05;;;5.72;;
46507;SDS011;32223;53.654;10.014;2024-01-06T11:03:52;10.80;;;5.97;;
46507;SDS011;32223;53.654;10.014;2024-01-06T11:06:20;10.82;;;4.85;;
46507;SDS011;32223;53.654;10.014;2024-01-06T11:09:32;9.15;;;5.50;;
46507;SDS011;32223;53.654;10.014;2024-01-06T11:11:36;9.45;;;4.95;;
46507;SDS011;32223;53.654;10.014;2024-01-06T11:16:46;9.73;;;5.45;;
46507;SDS011;32223;53.654;10.014;2024-01-06T11:22:18;8.82;;;4.32;;
46507;SDS011;32223;53.654;10.014;2024-01-06T11:24:49;9.48;;;5.05;;
46507;SDS011;32223;53.654;10.014;2024-01-06T11:27:19;10.73;;;4.93;;
46507;SDS011;32223;53.654;10.014;2024-01-06T11:29:51;10.13;;;5.28;;
46507;SDS011;32223;53.654;10.014;2024-01-06T11:32:40;8.88;;;4.43;;
46507;SDS011;32223;53.654;10.014;2024-01-06T11:37:35;9.23;;;4.47;;
46507;SDS011;32223;53.654;10.014;2024-01-06T11:42:34;10.40;;;4.90;;
46507;SDS011;32223;53.654;10.014;2024-01-06T11:45:03;9.32;;;4.47;;
46507;SDS011;32223;53.654;10.014;2024-01-06T11:47:31;9.15;;;4.70;;
46507;SDS011;32223;53.654;10.014;2024-01-06T11:49:57;8.55;;;4.80;;
46507;SDS011;32223;53.654;10.014;2024-01-06T11:52:25;9.80;;;5.18;;
46507;SDS011;32223;53.654;10.014;2024-01-06T11:54:52;7.28;;;3.40;;
46507;SDS011;32223;53.654;10.014;2024-01-06T11:57:20;6.97;;;3.55;;
46507;SDS011;32223;53.654;10.014;2024-01-06T11:59:47;10.45;;;4.50;;
46507;SDS011;32223;53.654;10.014;2024-01-06T12:02:13;10.20;;;4.85;;
46507;SDS011;32223;53.654;10.014;2024-01-06T12:04:39;9.30;;;4.00;;
46507;SDS011;32223;53.654;10.014;2024-01-06T12:07:08;6.95;;;3.60;;
46507;SDS011;32223;53.654;10.014;2024-01-06T12:09:38;6.68;;;3.38;;
46507;SDS011;32223;53.654;10.014;2024-01-06T12:12:04;6.93;;;3.53;;
46507;SDS011;32223;53.654;10.014;2024-01-06T12:14:30;9.48;;;4.35;;
46507;SDS011;32223;53.654;10.014;2024-01-06T12:16:57;8.80;;;4.03;;
46507;SDS011;32223;53.654;10.014;2024-01-06T12:19:29;9.57;;;4.43;;
46507;SDS011;32223;53.654;10.014;2024-01-06T12:21:56;7.60;;;3.65;;
46507;SDS011;32223;53.654;10.014;2024-01-06T12:24:22;7.88;;;3.95;;
46507;SDS011;32223;53.654;10.014;2024-01-06T12:26:48;7.93;;;3.88;;
46507;SDS011;32223;53.654;10.014;2024-01-06T12:29:14;9.65;;;3.70;;
46507;SDS011;32223;53.654;10.014;2024-01-06T12:31:41;6.55;;;4.03;;
46507;SDS011;32223;53.654;10.014;2024-01-06T12:34:09;7.43;;;3.60;;
46507;SDS011;32223;53.654;10.014;2024-01-06T12:36:36;8.20;;;3.58;;
46507;SDS011;32223;53.654;10.014;2024-01-06T12:39:03;9.75;;;4.85;;
46507;SDS011;32223;53.654;10.014;2024-01-06T12:41:29;7.60;;;3.45;;
46507;SDS011;32223;53.654;10.014;2024-01-06T12:43:58;5.05;;;3.30;;
46507;SDS011;32223;53.654;10.014;2024-01-06T12:46:25;5.75;;;3.30;;
46507;SDS011;32223;53.654;10.014;2024-01-06T12:48:51;6.35;;;3.55;;
46507;SDS011;32223;53.654;10.014;2024-01-06T12:51:16;6.40;;;3.50;;
46507;SDS011;32223;53.654;10.014;2024-01-06T12:53:42;7.60;;;3.38;;
46507;SDS011;32223;53.654;10.014;2024-01-06T12:56:07;7.00;;;3.13;;
46507;SDS011;32223;53.654;10.014;2024-01-06T12:58:33;9.48;;;3.70;;
46507;SDS011;32223;53.654;10.014;2024-01-06T13:00:59;6.03;;;3.25;;
46507;SDS011;32223;53.654;10.014;2024-01-06T13:03:25;6.53;;;3.58;;
46507;SDS011;32223;53.654;10.014;2024-01-06T13:05:50;7.13;;;3.80;;
46507;SDS011;32223;53.654;10.014;2024-01-06T13:08:16;7.88;;;3.53;;
46507;SDS011;32223;53.654;10.014;2024-01-06T13:10:42;5.90;;;4.05;;
46507;SDS011;32223;53.654;10.014;2024-01-06T13:13:08;6.10;;;3.63;;
46507;SDS011;32223;53.654;10.014;2024-01-06T13:15:34;5.53;;;3.70;;
46507;SDS011;32223;53.654;10.014;2024-01-06T13:17:59;6.88;;;3.35;;
46507;SDS011;32223;53.654;10.014;2024-01-06T13:20:25;6.13;;;3.10;;
46507;SDS011;32223;53.654;10.014;2024-01-06T13:22:50;9.68;;;3.78;;
46507;SDS011;32223;53.654;10.014;2024-01-06T13:25:17;6.72;;;4.13;;
46507;SDS011;32223;53.654;10.014;2024-01-06T13:27:42;8.57;;;3.90;;
46507;SDS011;32223;53.654;10.014;2024-01-06T13:30:08;6.03;;;3.33;;
46507;SDS011;32223;53.654;10.014;2024-01-06T13:32:37;8.80;;;4.28;;
46507;SDS011;32223;53.654;10.014;2024-01-06T13:35:03;10.68;;;3.88;;
46507;SDS011;32223;53.654;10.014;2024-01-06T13:37:31;8.30;;;3.55;;
46507;SDS011;32223;53.654;10.014;2024-01-06T13:39:57;6.82;;;3.50;;
46507;SDS011;32223;53.654;10.014;2024-01-06T13:42:22;7.30;;;3.60;;
46507;SDS011;32223;53.654;10.014;2024-01-06T13:44:48;9.18;;;3.92;;
46507;SDS011;32223;53.654;10.014;2024-01-06T13:47:14;7.25;;;3.33;;
46507;SDS011;32223;53.654;10.014;2024-01-06T13:49:40;5.15;;;3.10;;
46507;SDS011;32223;53.654;10.014;2024-01-06T13:52:06;5.30;;;2.92;;
46507;SDS011;32223;53.654;10.014;2024-01-06T13:54:35;6.32;;;3.40;;
46507;SDS011;32223;53.654;10.014;2024-01-06T13:57:01;7.30;;;4.05;;
46507;SDS011;32223;53.654;10.014;2024-01-06T13:59:26;7.95;;;4.05;;
46507;SDS011;32223;53.654;10.014;2024-01-06T14:01:55;5.82;;;3.42;;
46507;SDS011;32223;53.654;10.014;2024-01-06T14:06:59;7.22;;;3.20;;
46507;SDS011;32223;53.654;10.014;2024-01-06T14:09:26;4.97;;;3.40;;
46507;SDS011;32223;53.654;10.014;2024-01-06T14:11:52;5.47;;;3.25;;
46507;SDS011;32223;53.654;10.014;2024-01-06T14:14:20;7.05;;;4.05;;
46507;SDS011;32223;53.654;10.014;2024-01-06T14:16:45;7.95;;;4.15;;
46507;SDS011;32223;53.654;10.014;2024-01-06T14:19:12;12.80;;;4.47;;
46507;SDS011;32223;53.654;10.014;2024-01-06T14:21:38;7.60;;;4.22;;
46507;SDS011;32223;53.654;10.014;2024-01-06T14:24:04;8.43;;;4.68;;
46507;SDS011;32223;53.654;10.014;2024-01-06T14:26:31;8.15;;;4.25;;
46507;SDS011;32223;53.654;10.014;2024-01-06T14:28:57;6.60;;;3.50;;
46507;SDS011;32223;53.654;10.014;2024-01-06T14:31:23;7.25;;;4.03;;
46507;SDS011;32223;53.654;10.014;2024-01-06T14:33:49;7.88;;;4.35;;